»·PEaware :: N9510L KBUR-KLAS

N9510L :: KBUR-KLAS

FLIGHT INFORMATION

Flight Status: Arrived
Operator: Privately registered:
United States
More flights under this callsign
Pilot: Rich S. (24902)
Aircraft: CESSNA 172 SKYHAWK
(C172)
More flights by this aircraft type
Origin: KBUR Bob Hope-Burbank
United States
Destination: KLAS McCarran Intl
United States
More flights between these airports :: More routes between these airports
Route: +VNY3 DAG CRESO4
File this flight plan on PilotEdge
Remarks:
Altitude:
(Current/Filed)
11,000ft
Speed:
(Current/Filed)
110kts
Departed: 19-May-20 08:42 AM
Arrived: 19-May-20 10:46 AM
Distance/Time
Traveled:
194nm/2:04
Distance/Time
To Go:
Arrived

Flight Plot

Page will automatically refresh every two minutes.


Map Options




Map Legend


Flown Route
Filed Route
Departure Airport
Arrival Airport
Navaid (VOR, NDB)
Fix

Horizontal Profiles

Position Reports

Time Latitude Longitude Heading Altitude Ground
Speed
19-May-20 08:02 34.200215 -118.358844 258 721ft 0kts
19-May-20 08:03 34.200215 -118.358844 258 721ft 0kts
19-May-20 08:04 34.200215 -118.358844 258 721ft 0kts
19-May-20 08:05 34.200215 -118.358844 258 721ft 0kts
19-May-20 08:06 34.200215 -118.358844 258 721ft 0kts
19-May-20 08:07 34.200215 -118.358844 258 721ft 0kts
19-May-20 08:08 34.200215 -118.358844 258 721ft 0kts
19-May-20 08:09 34.200215 -118.358844 258 721ft 0kts
19-May-20 08:10 34.200215 -118.358844 258 721ft 0kts
19-May-20 08:11 34.200215 -118.358844 258 721ft 0kts
19-May-20 08:12 34.200215 -118.358844 258 721ft 0kts
19-May-20 08:13 34.200215 -118.358844 258 721ft 0kts
19-May-20 08:14 34.200215 -118.358844 258 721ft 0kts
19-May-20 08:15 34.200215 -118.358844 258 721ft 0kts
19-May-20 08:16 34.200215 -118.358844 258 721ft 0kts
19-May-20 08:17 34.200215 -118.358844 258 721ft 0kts
19-May-20 08:18 34.200215 -118.358844 258 721ft 0kts
19-May-20 08:20 34.200215 -118.358844 258 721ft 0kts
19-May-20 08:21 34.200215 -118.358844 258 721ft 0kts
19-May-20 08:22 34.200215 -118.358844 258 721ft 0kts
19-May-20 08:23 34.200215 -118.358844 258 721ft 0kts
19-May-20 08:24 34.200215 -118.358844 258 721ft 0kts
19-May-20 08:25 34.200215 -118.358844 258 721ft 0kts
19-May-20 08:26 34.200215 -118.358844 258 721ft 0kts
19-May-20 08:27 34.200215 -118.358844 258 721ft 0kts
19-May-20 08:28 34.200215 -118.358844 258 721ft 0kts
19-May-20 08:29 34.200215 -118.358844 258 721ft 0kts
19-May-20 08:30 34.200215 -118.358844 258 721ft 0kts
19-May-20 08:31 34.199558 -118.358506 95 718ft 1kts
19-May-20 08:32 34.199815 -118.358174 357 718ft 1kts
19-May-20 08:33 34.201098 -118.358533 348 724ft 9kts
19-May-20 08:34 34.203118 -118.359095 347 733ft 4kts
19-May-20 08:35 34.205346 -118.359693 347 739ft 12kts
19-May-20 08:36 34.207238 -118.360229 346 747ft 3kts
19-May-20 08:37 34.208981 -118.360698 347 756ft 4kts
19-May-20 08:38 34.210655 -118.361161 345 766ft 8kts
19-May-20 08:39 34.211911 -118.361390 22 768ft 0kts
19-May-20 08:40 34.211718 -118.360285 167 766ft 20kts
19-May-20 08:41 34.191391 -118.355755 171 1253ft 84kts
19-May-20 08:42 34.169478 -118.362591 221 1986ft 83kts
19-May-20 08:43 34.153074 -118.381496 225 2664ft 84kts
19-May-20 08:44 34.135353 -118.399948 220 3308ft 85kts
19-May-20 08:45 34.124523 -118.422504 300 3897ft 81kts
19-May-20 08:46 34.145371 -118.425590 358 4470ft 79kts
19-May-20 08:47 34.167786 -118.424193 2 4995ft 83kts
19-May-20 08:48 34.190614 -118.421025 359 5520ft 81kts
19-May-20 08:49 34.213264 -118.420049 355 6001ft 81kts
19-May-20 08:50 34.236018 -118.417487 5 6458ft 83kts
19-May-20 08:51 34.258103 -118.407235 15 6884ft 85kts
19-May-20 08:52 34.280600 -118.398664 3 7294ft 83kts
19-May-20 08:53 34.302867 -118.390752 6 7701ft 82kts
19-May-20 08:54 34.325643 -118.382685 14 8045ft 87kts
19-May-20 08:55 34.348374 -118.373682 9 8403ft 87kts
19-May-20 08:56 34.371229 -118.363842 6 8739ft 88kts
19-May-20 08:57 34.394672 -118.357487 3 9089ft 86kts
19-May-20 08:58 34.417938 -118.348792 12 9417ft 90kts
19-May-20 08:59 34.441012 -118.339224 2 9730ft 89kts
19-May-20 09:00 34.464434 -118.329222 39 10025ft 102kts
19-May-20 09:01 34.483086 -118.303383 38 10322ft 102kts
19-May-20 09:02 34.500492 -118.275177 47 10604ft 106kts
19-May-20 09:03 34.517722 -118.246162 37 10871ft 104kts
19-May-20 09:04 34.537230 -118.216806 46 10952ft 125kts
19-May-20 09:05 34.556660 -118.181181 45 10928ft 125kts
19-May-20 09:06 34.577449 -118.146822 44 10985ft 126kts
19-May-20 09:07 34.600338 -118.113856 45 10948ft 134kts
19-May-20 09:08 34.622268 -118.077748 46 10953ft 133kts
19-May-20 09:09 34.635439 -118.035225 80 10956ft 139kts
19-May-20 09:10 34.638485 -117.988733 79 10959ft 140kts
19-May-20 09:11 34.644094 -117.942477 76 10967ft 139kts
19-May-20 09:12 34.648444 -117.895709 81 10964ft 139kts
19-May-20 09:13 34.657033 -117.850648 79 10958ft 140kts
19-May-20 09:14 34.659808 -117.802905 85 10925ft 140kts
19-May-20 09:15 34.665129 -117.757205 65 10950ft 137kts
19-May-20 09:17 34.677771 -117.713893 71 10980ft 137kts
19-May-20 09:18 34.688474 -117.669742 71 11010ft 136kts
19-May-20 09:19 34.699515 -117.625535 69 10982ft 138kts
19-May-20 09:20 34.709743 -117.580854 63 10954ft 137kts
19-May-20 09:21 34.720915 -117.536834 69 10959ft 136kts
19-May-20 09:22 34.732190 -117.492723 69 10945ft 137kts
19-May-20 09:23 34.742184 -117.447971 76 10931ft 137kts
19-May-20 09:24 34.751230 -117.403167 63 10951ft 133kts
19-May-20 09:25 34.766446 -117.363037 63 11037ft 130kts
19-May-20 09:26 34.778456 -117.320018 72 11017ft 134kts
19-May-20 09:27 34.788498 -117.275837 73 10987ft 136kts
19-May-20 09:28 34.798094 -117.231250 66 10988ft 132kts
19-May-20 09:29 34.811074 -117.188727 63 10973ft 134kts
19-May-20 09:30 34.819673 -117.144692 66 11021ft 132kts
19-May-20 09:31 34.833528 -117.102482 67 10983ft 137kts
19-May-20 09:32 34.844383 -117.058272 61 10990ft 136kts
19-May-20 09:33 34.857384 -117.015216 66 11014ft 136kts
19-May-20 09:33 34.866004 -116.978535 82 11028ft 136kts
19-May-20 09:35 34.877336 -116.926777 82 11049ft 135kts
19-May-20 09:36 34.888877 -116.883399 70 11048ft 136kts
19-May-20 09:36 34.899500 -116.847672 76 11073ft 135kts
19-May-20 09:37 34.907871 -116.802889 75 11066ft 137kts
19-May-20 09:38 34.917728 -116.757517 78 10970ft 137kts
19-May-20 09:39 34.927806 -116.713453 70 10960ft 132kts
19-May-20 09:40 34.938223 -116.670769 79 10931ft 134kts
19-May-20 09:41 34.948472 -116.628565 75 11014ft 133kts
19-May-20 09:42 34.960165 -116.585417 62 11053ft 134kts
19-May-20 09:43 34.976773 -116.544780 72 11025ft 132kts
19-May-20 09:44 34.990779 -116.503443 69 10994ft 125kts
19-May-20 09:45 35.006552 -116.462666 61 10864ft 128kts
19-May-20 09:46 35.026615 -116.428074 47 10924ft 128kts
19-May-20 09:47 35.046053 -116.390627 64 11076ft 132kts
19-May-20 09:48 35.065930 -116.350084 62 10876ft 138kts
19-May-20 09:49 35.083729 -116.311509 60 10985ft 127kts
19-May-20 09:50 35.100864 -116.272184 69 10987ft 135kts
19-May-20 09:51 35.116007 -116.230941 64 11007ft 135kts
19-May-20 09:52 35.134547 -116.190386 58 10945ft 140kts
19-May-20 09:53 35.153534 -116.149623 66 10942ft 137kts
19-May-20 09:54 35.170611 -116.108124 65 10957ft 136kts
19-May-20 09:55 35.188045 -116.066764 55 10937ft 137kts
19-May-20 09:56 35.204464 -116.025045 63 10948ft 135kts
19-May-20 09:57 35.221535 -115.984150 64 10998ft 132kts
19-May-20 09:58 35.241467 -115.945534 55 11030ft 134kts
19-May-20 09:59 35.260501 -115.904935 62 11005ft 135kts
19-May-20 10:00 35.278936 -115.864051 63 11011ft 135kts
19-May-20 10:01 35.296493 -115.822419 62 10991ft 136kts
19-May-20 10:02 35.316213 -115.782494 48 10980ft 137kts
19-May-20 10:03 35.340618 -115.746712 47 11000ft 137kts
19-May-20 10:04 35.366899 -115.712408 45 10969ft 138kts
19-May-20 10:05 35.391760 -115.676345 49 10952ft 138kts
19-May-20 10:06 35.417363 -115.641083 49 10939ft 137kts
19-May-20 10:07 35.443193 -115.606276 47 10924ft 138kts
19-May-20 10:08 35.471338 -115.574280 45 10798ft 139kts
19-May-20 10:09 35.497354 -115.536915 46 10023ft 148kts
19-May-20 10:10 35.523294 -115.502169 51 9919ft 134kts
19-May-20 10:11 35.548330 -115.468662 44 9927ft 134kts
19-May-20 10:12 35.573518 -115.435074 45 9956ft 133kts
19-May-20 10:13 35.599192 -115.401907 49 9952ft 134kts
19-May-20 10:14 35.624108 -115.367896 47 9963ft 134kts
19-May-20 10:15 35.649098 -115.334243 47 9967ft 134kts
19-May-20 10:16 35.674411 -115.300721 49 9957ft 134kts
19-May-20 10:17 35.700072 -115.267657 47 9947ft 134kts
19-May-20 10:18 35.724405 -115.232934 49 9930ft 134kts
19-May-20 10:19 35.749145 -115.198632 53 9923ft 133kts
19-May-20 10:20 35.774366 -115.164638 47 9911ft 133kts
19-May-20 10:21 35.799763 -115.130246 48 9898ft 137kts
19-May-20 10:22 35.824653 -115.094693 54 9897ft 140kts
19-May-20 10:23 35.850692 -115.058589 49 9895ft 143kts
19-May-20 10:24 35.878703 -115.024221 54 9923ft 142kts
19-May-20 10:25 35.904754 -114.986948 52 9949ft 144kts
19-May-20 10:26 35.931905 -114.950305 59 9981ft 143kts
19-May-20 10:27 35.959323 -114.915150 48 10053ft 147kts
19-May-20 10:28 35.992829 -114.883505 32 9712ft 157kts
19-May-20 10:29 36.036181 -114.873881 357 8233ft 165kts
19-May-20 10:30 36.076981 -114.870316 358 7176ft 144kts
19-May-20 10:31 36.117661 -114.869100 359 5813ft 155kts
19-May-20 10:32 36.156410 -114.865101 345 5536ft 125kts
19-May-20 10:33 36.172924 -114.897148 277 5514ft 112kts
19-May-20 10:34 36.184920 -114.931033 283 5660ft 106kts
19-May-20 10:35 36.198329 -114.965451 276 5595ft 112kts
19-May-20 10:36 36.206493 -114.999999 281 5675ft 108kts
19-May-20 10:37 36.216502 -115.031065 255 5770ft 94kts
19-May-20 10:38 36.196001 -115.042058 187 5085ft 85kts
19-May-20 10:39 36.180207 -115.062792 248 4466ft 93kts
19-May-20 10:40 36.173945 -115.094003 240 3865ft 91kts
19-May-20 10:41 36.161549 -115.117694 215 3273ft 82kts
19-May-20 10:42 36.143238 -115.129991 208 3055ft 75kts
19-May-20 10:43 36.125276 -115.140725 208 2817ft 68kts
19-May-20 10:44 36.109171 -115.150560 208 2433ft 56kts
19-May-20 10:45 36.095609 -115.158806 206 2097ft 36kts
19-May-20 10:46 36.094121 -115.160743 296 2107ft 0kts
19-May-20 10:47 36.094121 -115.160743 296 2107ft 0kts
19-May-20 10:48 36.094265 -115.161130 295 2107ft 3kts
19-May-20 10:49 36.094404 -115.161745 272 2108ft 0kts
19-May-20 10:50 36.094404 -115.161745 272 2108ft 0kts

Navigation Log

Ident Type
Flight plan parsing failed, navigation log unavailable